createdAt,value
2022-11-08T00:02:23.077Z,63.09
2022-11-08T00:04:49.902Z,63.12
2022-11-08T00:07:16.468Z,62.95
2022-11-08T00:09:55.574Z,63.36
2022-11-08T00:12:22.158Z,62.82
2022-11-08T00:14:48.755Z,62.70
2022-11-08T00:17:15.336Z,63.29
2022-11-08T00:22:40.313Z,62.59
2022-11-08T00:25:06.885Z,62.17
2022-11-08T00:27:33.470Z,63.03
2022-11-08T00:30:05.295Z,63.05
2022-11-08T00:32:40.772Z,63.62
2022-11-08T00:35:07.408Z,63.35
2022-11-08T00:37:33.968Z,63.43
2022-11-08T00:48:24.480Z,64.19
2022-11-08T00:50:51.060Z,63.62
2022-11-08T00:53:17.476Z,63.18
2022-11-08T00:58:36.412Z,63.17
2022-11-08T01:01:03.060Z,62.63
2022-11-08T01:03:29.654Z,62.52
2022-11-08T01:08:47.945Z,62.71
2022-11-08T01:11:14.358Z,62.64
2022-11-08T01:16:30.554Z,62.69
2022-11-08T01:18:57.132Z,61.96
2022-11-08T01:21:31.863Z,61.33
2022-11-08T01:23:58.448Z,62.01
2022-11-08T01:26:24.882Z,62.16
2022-11-08T01:28:51.443Z,63.06
2022-11-08T01:31:18.016Z,63.20
2022-11-08T01:36:28.548Z,62.79
2022-11-08T01:38:55.127Z,62.24
2022-11-08T01:41:23.931Z,62.40
2022-11-08T01:46:29.941Z,62.95
2022-11-08T01:48:56.385Z,63.20
2022-11-08T01:59:48.059Z,64.00
2022-11-08T02:07:48.943Z,62.88
2022-11-08T02:10:15.515Z,62.78
2022-11-08T02:12:41.955Z,63.13
2022-11-08T02:15:08.543Z,62.19
2022-11-08T02:17:35.113Z,62.56
2022-11-08T02:22:56.022Z,63.72
2022-11-08T02:25:22.585Z,63.79
2022-11-08T02:27:49.174Z,63.89
2022-11-08T02:30:15.761Z,64.01
2022-11-08T02:32:42.232Z,64.28
2022-11-08T02:35:08.804Z,63.70
2022-11-08T02:40:20.000Z,64.28
2022-11-08T02:42:46.570Z,64.08
2022-11-08T02:45:13.180Z,64.66
2022-11-08T02:47:39.751Z,63.37
2022-11-08T02:50:06.311Z,63.84
2022-11-08T02:52:32.911Z,63.84
2022-11-08T02:54:59.376Z,64.19
2022-11-08T02:57:26.055Z,64.83
2022-11-08T03:02:36.687Z,64.69
2022-11-08T03:05:03.215Z,64.68
2022-11-08T03:10:13.687Z,64.53
2022-11-08T03:12:40.279Z,64.18
2022-11-08T03:15:06.859Z,63.65
2022-11-08T03:23:08.038Z,64.11
2022-11-08T03:25:34.445Z,64.17
2022-11-08T03:28:00.891Z,63.95
2022-11-08T03:30:27.469Z,64.04
2022-11-08T03:32:54.029Z,64.38
2022-11-08T03:35:20.453Z,64.57
2022-11-08T03:37:47.015Z,64.67
2022-11-08T03:45:54.139Z,65.42
2022-11-08T03:48:21.069Z,65.22
2022-11-08T03:50:47.597Z,64.31
2022-11-08T03:58:49.017Z,64.15
2022-11-08T04:01:15.651Z,64.26
2022-11-08T04:03:42.249Z,64.67
2022-11-08T04:08:59.039Z,63.59
2022-11-08T04:11:25.702Z,63.64
2022-11-08T04:16:36.608Z,65.88
2022-11-08T04:19:03.115Z,66.34
2022-11-08T04:29:46.965Z,64.52
2022-11-08T04:32:13.561Z,64.28
2022-11-08T04:37:32.819Z,65.25
2022-11-08T04:39:59.251Z,65.95
2022-11-08T04:42:25.829Z,66.02
2022-11-08T04:44:52.413Z,66.43
2022-11-08T04:47:18.904Z,66.22
2022-11-08T04:52:37.616Z,66.69
2022-11-08T04:55:04.210Z,66.55
2022-11-08T04:57:30.657Z,66.77
2022-11-08T04:59:57.259Z,65.99
2022-11-08T05:02:23.772Z,65.41
2022-11-08T05:04:50.275Z,65.18
2022-11-08T05:07:16.766Z,65.13
2022-11-08T05:09:43.359Z,65.07
2022-11-08T05:12:09.931Z,65.32
2022-11-08T05:14:47.341Z,66.72
2022-11-08T05:17:13.936Z,66.30
2022-11-08T05:19:40.502Z,66.33
2022-11-08T05:24:57.113Z,64.92
2022-11-08T05:27:23.689Z,65.09
2022-11-08T05:29:50.267Z,65.49
2022-11-08T05:32:16.700Z,65.59
2022-11-08T05:34:43.162Z,66.33
2022-11-08T05:37:09.586Z,65.88
2022-11-08T05:42:20.181Z,65.39
2022-11-08T05:44:46.906Z,65.83
2022-11-08T05:47:13.681Z,64.80
2022-11-08T05:49:40.112Z,65.02
2022-11-08T05:52:06.769Z,65.26
2022-11-08T05:54:33.223Z,66.09
2022-11-08T05:56:59.738Z,66.19
2022-11-08T05:59:26.222Z,66.14
2022-11-08T06:01:52.928Z,66.51
2022-11-08T06:04:19.395Z,66.59
2022-11-08T06:06:46.017Z,66.86
2022-11-08T06:09:12.619Z,67.08
2022-11-08T06:11:39.184Z,66.40
2022-11-08T06:14:05.653Z,66.23
2022-11-08T06:19:16.104Z,65.60
2022-11-08T06:21:42.675Z,66.04
2022-11-08T06:26:59.736Z,65.77
2022-11-08T06:29:26.441Z,66.07
2022-11-08T06:31:53.022Z,66.36
2022-11-08T06:34:19.459Z,66.94
2022-11-08T06:36:46.100Z,66.64
2022-11-08T06:39:12.537Z,67.15
2022-11-08T06:41:39.094Z,66.99
2022-11-08T06:46:56.254Z,66.66
2022-11-08T06:49:22.849Z,66.28
2022-11-08T06:51:49.442Z,66.60
2022-11-08T06:54:17.902Z,66.62
2022-11-08T07:02:26.370Z,67.35
2022-11-08T07:07:42.749Z,67.64
2022-11-08T07:10:11.604Z,67.85
2022-11-08T07:12:38.295Z,67.86
2022-11-08T07:15:04.865Z,67.52
2022-11-08T07:17:35.800Z,67.14
2022-11-08T07:20:08.466Z,67.46
2022-11-08T07:25:28.098Z,67.65
2022-11-08T07:27:54.513Z,67.31
2022-11-08T07:30:21.109Z,67.22
2022-11-08T07:32:47.709Z,67.65
2022-11-08T10:09:10.697Z,64.34
2022-11-08T10:17:01.907Z,61.75
2022-11-08T10:19:28.310Z,60.27
2022-11-08T10:21:54.701Z,61.18
2022-11-08T10:24:21.102Z,59.93
2022-11-08T10:26:47.481Z,58.86
2022-11-08T10:29:13.861Z,58.78
2022-11-08T10:31:40.279Z,58.37
2022-11-08T10:34:06.761Z,57.76
2022-11-08T10:36:33.124Z,58.76
2022-11-08T10:38:59.500Z,58.67
2022-11-08T10:41:25.895Z,57.63
2022-11-08T10:43:52.276Z,57.69
2022-11-08T10:46:18.645Z,56.83
2022-11-08T10:48:45.028Z,56.98
2022-11-08T10:51:11.414Z,55.44
2022-11-08T10:53:37.788Z,55.80
2022-11-08T10:56:04.186Z,54.74
2022-11-08T10:58:30.585Z,54.41
2022-11-08T11:00:56.977Z,53.97
2022-11-08T11:03:23.383Z,54.57
2022-11-08T11:05:49.757Z,54.86
2022-11-08T11:08:16.364Z,55.59
2022-11-08T11:10:43.018Z,54.67
2022-11-08T11:13:09.388Z,53.30
2022-11-08T11:15:35.767Z,54.93
2022-11-08T11:18:02.155Z,54.32
2022-11-08T11:20:28.539Z,52.96
2022-11-08T11:22:54.956Z,53.36
2022-11-08T11:25:21.336Z,53.28
2022-11-08T11:27:47.733Z,52.30
2022-11-08T11:30:14.195Z,52.68
2022-11-08T11:32:40.573Z,52.26
2022-11-08T11:35:06.940Z,51.02
2022-11-08T11:37:33.350Z,52.43
2022-11-08T11:39:59.795Z,51.69
2022-11-08T11:45:12.530Z,50.59
2022-11-08T11:47:38.927Z,51.13
2022-11-08T11:50:05.289Z,50.83
2022-11-08T11:52:31.665Z,50.14
2022-11-08T11:54:58.041Z,48.51
2022-11-08T11:57:24.413Z,48.80
2022-11-08T11:59:50.783Z,47.39
2022-11-08T12:02:17.211Z,48.86
2022-11-08T12:04:43.616Z,48.01
2022-11-08T12:07:10.056Z,48.77
2022-11-08T12:09:36.446Z,48.08
2022-11-08T12:12:02.833Z,48.62
2022-11-08T12:14:29.227Z,49.28
2022-11-08T12:16:55.590Z,48.06
2022-11-08T12:19:21.960Z,47.79
2022-11-08T12:21:48.349Z,48.27
2022-11-08T12:24:14.744Z,48.12
2022-11-08T12:26:41.120Z,47.76
2022-11-08T12:29:07.498Z,46.97
2022-11-08T12:31:33.875Z,47.82
2022-11-08T12:34:00.267Z,46.62
2022-11-08T12:36:26.751Z,46.16
2022-11-08T12:38:53.148Z,45.89
2022-11-08T12:41:19.505Z,45.13
2022-11-08T12:43:45.885Z,44.41
2022-11-08T12:46:12.270Z,44.45
2022-11-08T12:48:39.298Z,44.38
2022-11-08T12:51:05.808Z,44.41
2022-11-08T12:56:16.232Z,43.75
2022-11-08T12:58:42.612Z,43.93
2022-11-08T13:01:09.058Z,42.95
2022-11-08T13:03:35.536Z,44.71
2022-11-08T13:06:01.928Z,43.45
2022-11-08T13:08:32.018Z,43.71
2022-11-08T13:10:58.386Z,43.78
2022-11-08T13:13:24.757Z,43.22
2022-11-08T13:15:51.132Z,43.94
2022-11-08T13:18:17.864Z,43.31
2022-11-08T13:20:44.400Z,43.85
2022-11-08T13:23:10.770Z,42.88
2022-11-08T13:25:37.247Z,43.14
2022-11-08T13:30:47.454Z,44.58
2022-11-08T13:33:13.847Z,43.35
2022-11-08T13:35:40.220Z,42.54
2022-11-08T13:38:06.606Z,42.11
2022-11-08T13:40:32.971Z,41.75
2022-11-08T13:42:59.346Z,42.64
2022-11-08T13:45:25.740Z,42.70
2022-11-08T13:47:52.116Z,43.13
2022-11-08T13:50:18.480Z,43.23
2022-11-08T13:52:44.861Z,43.58
2022-11-08T13:55:11.240Z,42.74
2022-11-08T13:57:37.621Z,43.73
2022-11-08T14:00:03.996Z,44.21
2022-11-08T14:02:30.384Z,44.04
2022-11-08T14:04:56.764Z,44.25
2022-11-08T14:07:25.451Z,43.55
2022-11-08T14:09:52.106Z,45.10
2022-11-08T14:12:18.508Z,44.75
2022-11-08T14:14:44.875Z,44.63
2022-11-08T14:17:11.273Z,44.57
2022-11-08T14:19:37.659Z,43.03
2022-11-08T14:22:04.023Z,43.59
2022-11-08T14:24:30.409Z,44.72
2022-11-08T14:26:56.786Z,45.24
2022-11-08T14:29:23.154Z,44.82
2022-11-08T14:31:49.525Z,43.97
2022-11-08T14:34:15.916Z,43.79
2022-11-08T14:36:45.067Z,43.16
2022-11-08T14:39:11.758Z,44.56
2022-11-08T14:41:38.243Z,43.65
2022-11-08T14:44:04.620Z,44.61
2022-11-08T14:46:30.993Z,43.96
2022-11-08T14:48:57.365Z,43.58
2022-11-08T14:51:23.726Z,44.42
2022-11-08T14:53:50.097Z,44.40
2022-11-08T14:56:16.458Z,44.49
2022-11-08T14:58:42.837Z,45.68
2022-11-08T15:01:09.279Z,45.38
2022-11-08T15:03:35.715Z,44.22
2022-11-08T15:06:02.106Z,45.28
2022-11-08T15:08:28.477Z,45.82
2022-11-08T15:10:54.991Z,44.85
2022-11-08T15:13:21.396Z,44.67
2022-11-08T15:15:47.761Z,45.33
2022-11-08T15:18:14.133Z,45.75
2022-11-08T15:20:40.516Z,45.46
2022-11-08T15:23:06.888Z,44.99
2022-11-08T15:25:33.267Z,45.19
2022-11-08T15:27:59.646Z,44.68
2022-11-08T15:30:26.117Z,44.91
2022-11-08T15:32:52.525Z,45.41
2022-11-08T15:35:18.908Z,45.60
2022-11-08T15:37:48.780Z,45.18
2022-11-08T15:40:15.434Z,46.01
2022-11-08T16:10:13.012Z,48.04
2022-11-08T16:12:39.420Z,46.99
2022-11-08T16:15:05.789Z,46.86
2022-11-08T16:17:32.191Z,49.18
2022-11-08T16:19:58.574Z,47.69
2022-11-08T16:25:15.752Z,47.91
2022-11-08T16:27:42.141Z,47.71
2022-11-08T16:30:08.523Z,49.15
2022-11-08T16:32:34.952Z,50.36
2022-11-08T16:35:01.331Z,48.90
2022-11-08T16:37:27.755Z,51.92
2022-11-08T16:39:54.321Z,49.81
2022-11-08T16:42:20.713Z,50.95
2022-11-08T16:44:47.255Z,50.83
2022-11-08T16:47:13.649Z,49.13
2022-11-08T16:49:40.113Z,49.14
2022-11-08T16:52:06.488Z,48.79
2022-11-08T16:54:32.854Z,49.00
2022-11-08T16:57:33.587Z,48.55
2022-11-08T16:59:45.852Z,49.30
2022-11-08T17:02:12.354Z,49.49
2022-11-08T17:04:38.766Z,48.38
2022-11-08T17:07:08.856Z,49.60
2022-11-08T17:09:37.899Z,49.99
2022-11-08T17:12:04.305Z,49.53
2022-11-08T17:14:30.782Z,48.12
2022-11-08T17:16:57.167Z,48.80
2022-11-08T17:19:23.544Z,48.17
2022-11-08T17:21:49.931Z,48.80
2022-11-08T17:24:21.594Z,49.10
2022-11-08T17:26:48.569Z,48.52
2022-11-08T17:29:14.978Z,48.37
2022-11-08T17:31:41.352Z,48.48
2022-11-08T17:34:07.749Z,48.83
2022-11-08T17:36:34.338Z,48.56
2022-11-08T17:39:00.717Z,48.98
2022-11-08T17:41:27.135Z,48.19
2022-11-08T17:43:53.526Z,48.29
2022-11-08T17:46:19.919Z,48.63
2022-11-08T17:48:46.320Z,48.70
2022-11-08T17:59:39.062Z,48.92
2022-11-08T18:02:05.487Z,49.16
2022-11-08T18:04:31.944Z,48.84
2022-11-08T18:09:56.553Z,49.44
2022-11-08T18:12:22.935Z,49.25
2022-11-08T18:14:49.316Z,49.46
2022-11-08T18:17:15.682Z,49.81
2022-11-08T18:19:42.064Z,49.99
2022-11-08T18:22:08.428Z,50.50
2022-11-08T18:24:34.821Z,50.03
2022-11-08T18:27:01.191Z,50.53
2022-11-08T18:29:27.566Z,51.02
2022-11-08T18:31:53.962Z,52.09
2022-11-08T18:34:20.412Z,52.41
2022-11-08T18:36:46.796Z,52.94
2022-11-08T18:39:18.085Z,52.93
2022-11-08T18:41:45.729Z,52.51
2022-11-08T18:44:12.122Z,52.23
2022-11-08T18:52:12.848Z,51.55
2022-11-08T18:54:39.232Z,51.12
2022-11-08T19:00:00.679Z,51.02
2022-11-08T19:02:27.530Z,52.32
2022-11-08T19:04:53.916Z,52.05
2022-11-08T19:07:20.394Z,52.53
2022-11-08T19:09:47.245Z,52.32
2022-11-08T19:12:13.629Z,52.29
2022-11-08T19:14:40.028Z,52.04
2022-11-08T19:17:06.419Z,52.21
2022-11-08T19:19:32.805Z,52.09
2022-11-08T19:21:59.211Z,51.86
2022-11-08T19:24:25.607Z,51.64
2022-11-08T19:26:53.000Z,51.57
2022-11-08T19:29:19.376Z,51.92
2022-11-08T19:31:45.749Z,51.86
2022-11-08T19:34:12.133Z,52.00
2022-11-08T19:36:38.515Z,52.02
2022-11-08T19:44:45.013Z,51.99
2022-11-08T19:47:11.374Z,51.69
2022-11-08T19:49:37.742Z,51.93
2022-11-08T19:54:54.921Z,52.17
2022-11-08T19:57:21.320Z,52.64
2022-11-08T20:02:31.739Z,52.65
2022-11-08T20:04:58.113Z,52.94
2022-11-08T20:10:15.008Z,53.91
2022-11-08T20:12:41.434Z,54.13
2022-11-08T20:15:08.681Z,54.16
2022-11-08T20:17:35.065Z,54.09
2022-11-08T20:20:01.446Z,54.14
2022-11-08T20:22:27.815Z,54.32
2022-11-08T20:27:45.086Z,54.89
2022-11-08T20:30:11.481Z,55.06
2022-11-08T20:32:37.848Z,55.30
2022-11-08T20:37:48.405Z,54.82
2022-11-08T20:43:04.830Z,55.01
2022-11-08T20:45:34.675Z,54.65
2022-11-08T20:48:02.637Z,54.43
2022-11-08T20:56:10.005Z,54.03
2022-11-08T20:58:36.402Z,53.98
2022-11-08T21:01:04.666Z,54.00
2022-11-08T21:03:31.033Z,54.01
2022-11-08T21:05:57.424Z,54.41
2022-11-08T21:14:03.983Z,54.56
2022-11-08T21:21:54.229Z,55.30
2022-11-08T21:24:20.627Z,55.46
2022-11-08T21:32:35.481Z,55.46
2022-11-08T21:35:01.860Z,55.44
2022-11-08T21:37:28.242Z,55.72
2022-11-08T21:39:54.664Z,55.37
2022-11-08T21:42:21.036Z,56.28
2022-11-08T21:53:11.398Z,56.64
2022-11-08T21:55:37.795Z,56.79
2022-11-08T22:06:28.626Z,58.48
2022-11-08T22:08:55.092Z,58.05
2022-11-08T22:16:55.999Z,58.19
2022-11-08T22:25:02.737Z,58.27
2022-11-08T22:30:19.565Z,58.50
2022-11-08T22:32:45.960Z,58.85
2022-11-08T22:35:12.353Z,59.05
2022-11-08T22:37:38.835Z,58.64
2022-11-08T22:42:45.430Z,58.73
2022-11-08T22:45:11.816Z,58.19
2022-11-08T22:56:11.312Z,59.00
2022-11-08T22:58:38.181Z,59.13
2022-11-08T23:01:04.570Z,59.29
2022-11-08T23:03:30.933Z,58.50
2022-11-08T23:06:03.585Z,58.84
2022-11-08T23:08:29.965Z,59.30
2022-11-08T23:10:56.326Z,59.56
2022-11-08T23:13:22.698Z,59.37
2022-11-08T23:15:49.065Z,59.58
2022-11-08T23:18:15.457Z,59.92
2022-11-08T23:20:41.825Z,59.85
2022-11-08T23:23:08.194Z,60.96
2022-11-08T23:25:34.565Z,61.40
2022-11-08T23:39:14.782Z,61.26
2022-11-08T23:41:41.143Z,61.25
2022-11-08T23:46:57.652Z,61.87
2022-11-08T23:49:24.026Z,61.88
2022-11-08T23:51:50.404Z,61.84
2022-11-08T23:54:16.794Z,62.25
2022-11-08T23:56:43.210Z,61.39
